Time;durP1;ratioP1;P1;durP2;ratioP2;P2;SDS_P1;SDS_P2;PMS_P1;PMS_P2;Temp;Humidity;BMP_temperature;BMP_pressure;BME280_temperature;BME280_humidity;BME280_pressure;Samples;Min_cycle;Max_cycle;Signal;HPM_P1;HPM_P2
2022/11/30 00:00:10;;;;;;;;;;;7.30;99.90;;;;;;4997116;28;20279;-72
2022/11/30 00:02:35;;;;;;;;;;;7.30;99.90;;;;;;5000658;28;19923;-72
2022/11/30 00:05:01;;;;;;;;;;;7.30;99.90;;;;;;4995635;28;19922;-73
2022/11/30 00:07:26;;;;;;;;;;;7.40;99.90;;;;;;4997695;28;19921;-73
2022/11/30 00:09:52;;;;;;;;;;;7.40;99.90;;;;;;4981491;28;19918;-71
2022/11/30 00:12:17;;;;;;;;;;;7.40;99.90;;;;;;4981627;28;19914;-72
2022/11/30 00:14:43;;;;;;;;;;;7.40;99.90;;;;;;4994423;28;19945;-72
2022/11/30 00:17:08;;;;;;;;;;;7.40;99.90;;;;;;5010118;28;20478;-73
2022/11/30 00:19:34;;;;;;;;;;;7.40;99.90;;;;;;5007551;28;19924;-73
2022/11/30 00:21:59;;;;;;;;;;;7.50;99.90;;;;;;5006751;28;19971;-73
2022/11/30 00:24:25;;;;;;;;;;;7.40;99.90;;;;;;4984594;28;19918;-72
2022/11/30 00:26:50;;;;;;;;;;;7.40;99.90;;;;;;4987499;28;19973;-72
2022/11/30 00:29:16;;;;;;;;;;;7.40;99.90;;;;;;5000329;28;19918;-73
2022/11/30 00:31:41;;;;;;;;;;;7.40;99.90;;;;;;5000293;28;19969;-73
2022/11/30 00:34:06;;;;;;;;;;;7.40;99.90;;;;;;4999587;28;19924;-74
2022/11/30 00:36:32;;;;;;;;;;;7.40;99.90;;;;;;4998674;28;20024;-74
2022/11/30 00:38:58;;;;;;;;;;;7.40;99.90;;;;;;4999607;28;19913;-73
2022/11/30 00:41:23;;;;;;;;;;;7.40;99.90;;;;;;4979057;28;19913;-71
2022/11/30 00:43:49;;;;;;;;;;;7.50;99.90;;;;;;4997618;28;19913;-73
2022/11/30 00:46:14;;;;;;;;;;;7.40;99.90;;;;;;4998190;28;19967;-73
2022/11/30 00:48:40;;;;;;;;;;;7.40;99.90;;;;;;4998188;28;19948;-72
2022/11/30 00:51:07;;;;;;;;;;;7.40;99.90;;;;;;4986268;28;19935;-73
2022/11/30 00:53:32;;;;;;;;;;;7.40;99.90;;;;;;5001240;28;20270;-73
2022/11/30 00:55:58;;;;;;;;;;;7.40;99.90;;;;;;4999324;28;19933;-73
2022/11/30 00:58:23;;;;;;;;;;;7.40;99.90;;;;;;5000532;28;20020;-72
2022/11/30 01:00:49;;;;;;;;;;;7.40;99.90;;;;;;4984132;28;19921;-73
2022/11/30 01:03:14;;;;;;;;;;;7.40;99.90;;;;;;5000970;28;20366;-70
2022/11/30 01:05:42;;;;;;;;;;;7.40;99.90;;;;;;4982700;28;19922;-73
2022/11/30 01:08:08;;;;;;;;;;;7.50;99.90;;;;;;5002560;28;19917;-73
2022/11/30 01:10:34;;;;;;;;;;;7.50;99.90;;;;;;5000144;28;20334;-73
2022/11/30 01:13:00;;;;;;;;;;;7.50;99.90;;;;;;5002865;28;19917;-72
2022/11/30 01:15:26;;;;;;;;;;;7.50;99.90;;;;;;4999724;28;19914;-73
2022/11/30 01:17:51;;;;;;;;;;;7.50;99.90;;;;;;5001456;28;19925;-73
2022/11/30 01:20:17;;;;;;;;;;;7.50;99.90;;;;;;5000438;28;20078;-73
2022/11/30 01:22:43;;;;;;;;;;;7.50;99.90;;;;;;5003097;28;19922;-73
2022/11/30 01:25:08;;;;;;;;;;;7.50;99.90;;;;;;4998915;28;19918;-73
2022/11/30 01:27:34;;;;;;;;;;;7.50;99.90;;;;;;5002924;28;19914;-73
2022/11/30 01:29:59;;;;;;;;;;;7.50;99.90;;;;;;5002590;28;20370;-73
2022/11/30 01:32:25;;;;;;;;;;;7.60;99.90;;;;;;5001530;28;19917;-72
2022/11/30 01:34:51;;;;;;;;;;;7.60;99.90;;;;;;4989139;28;19914;-72
2022/11/30 01:37:16;;;;;;;;;;;7.60;99.90;;;;;;4987949;28;19924;-73
2022/11/30 01:39:42;;;;;;;;;;;7.60;99.90;;;;;;5000747;28;19921;-73
2022/11/30 01:42:15;;;;;;;;;;;7.60;99.90;;;;;;4984994;28;19917;-73
2022/11/30 01:44:48;;;;;;;;;;;7.70;99.90;;;;;;4998083;28;19921;-72
2022/11/30 01:47:14;;;;;;;;;;;7.70;99.90;;;;;;4982606;28;19918;-74
2022/11/30 01:49:43;;;;;;;;;;;7.70;99.90;;;;;;5001604;28;20000;-73
2022/11/30 01:52:17;;;;;;;;;;;7.70;99.90;;;;;;4985911;28;19921;-74
2022/11/30 01:54:52;;;;;;;;;;;7.80;99.90;;;;;;5002797;28;20610;-73
2022/11/30 01:57:19;;;;;;;;;;;7.80;99.90;;;;;;5002215;28;19918;-74
2022/11/30 01:59:45;;;;;;;;;;;7.80;99.90;;;;;;4999988;28;19913;-74
2022/11/30 02:02:11;;;;;;;;;;;7.80;99.90;;;;;;4982441;28;20349;-73
2022/11/30 02:04:37;;;;;;;;;;;7.80;99.90;;;;;;5000886;28;19921;-74
2022/11/30 02:07:04;;;;;;;;;;;7.80;99.90;;;;;;4980847;28;20424;-74
2022/11/30 02:09:30;;;;;;;;;;;7.80;99.90;;;;;;5002074;28;20298;-73
2022/11/30 02:11:56;;;;;;;;;;;7.80;99.90;;;;;;4998261;28;19937;-74
2022/11/30 02:14:25;;;;;;;;;;;7.80;99.90;;;;;;5000619;28;20393;-73
2022/11/30 02:17:06;;;;;;;;;;;7.80;99.90;;;;;;4999222;28;20008;-74
2022/11/30 02:19:32;;;;;;;;;;;7.80;99.90;;;;;;4998326;28;19967;-73
2022/11/30 02:22:00;;;;;;;;;;;7.80;99.90;;;;;;4998397;28;20342;-73
2022/11/30 02:24:35;;;;;;;;;;;7.80;99.90;;;;;;4997215;28;19986;-74
2022/11/30 02:27:16;;;;;;;;;;;7.80;99.90;;;;;;5000754;28;19959;-74
2022/11/30 02:29:44;;;;;;;;;;;7.80;99.90;;;;;;4999047;28;19918;-74
2022/11/30 02:32:10;;;;;;;;;;;7.80;99.90;;;;;;5000146;28;19913;-74
2022/11/30 02:34:36;;;;;;;;;;;7.80;99.90;;;;;;4999283;28;19929;-73
2022/11/30 02:37:03;;;;;;;;;;;7.80;99.90;;;;;;4987301;28;19966;-73
2022/11/30 02:39:29;;;;;;;;;;;7.80;99.90;;;;;;4982669;28;19914;-73
2022/11/30 02:41:54;;;;;;;;;;;7.80;99.90;;;;;;4980454;28;19964;-72
2022/11/30 02:44:21;;;;;;;;;;;7.80;99.90;;;;;;4997700;28;19924;-72
2022/11/30 02:46:59;;;;;;;;;;;7.80;99.90;;;;;;5000600;28;19921;-73
2022/11/30 02:49:43;;;;;;;;;;;7.80;99.90;;;;;;4997512;28;19961;-73
2022/11/30 02:52:09;;;;;;;;;;;7.80;99.90;;;;;;4998223;28;19971;-72
2022/11/30 02:54:35;;;;;;;;;;;7.80;99.90;;;;;;5000290;28;19914;-72
2022/11/30 02:57:00;;;;;;;;;;;7.80;99.90;;;;;;4998178;28;19922;-74
2022/11/30 02:59:26;;;;;;;;;;;7.80;99.90;;;;;;5001099;28;19914;-73
2022/11/30 03:01:52;;;;;;;;;;;7.80;99.90;;;;;;5000546;28;19913;-73
2022/11/30 03:04:17;;;;;;;;;;;7.80;99.90;;;;;;5000562;28;19921;-73
2022/11/30 03:06:43;;;;;;;;;;;7.70;99.90;;;;;;4998920;28;19921;-72
2022/11/30 03:09:08;;;;;;;;;;;7.70;99.90;;;;;;4997621;28;20314;-74
2022/11/30 03:11:33;;;;;;;;;;;7.70;99.90;;;;;;4980540;28;19917;-73
2022/11/30 03:13:59;;;;;;;;;;;7.70;99.90;;;;;;5000208;28;19921;-74
2022/11/30 03:16:24;;;;;;;;;;;7.70;99.90;;;;;;4979609;28;19917;-74
2022/11/30 03:18:50;;;;;;;;;;;7.60;99.90;;;;;;5000834;28;19918;-71
2022/11/30 03:21:15;;;;;;;;;;;7.70;99.90;;;;;;5001877;28;19925;-73
2022/11/30 03:23:41;;;;;;;;;;;7.60;99.90;;;;;;4995111;28;20000;-73
2022/11/30 03:26:07;;;;;;;;;;;7.60;99.90;;;;;;5006611;28;20370;-73
2022/11/30 03:28:33;;;;;;;;;;;7.70;99.90;;;;;;4999945;28;19917;-74
2022/11/30 03:30:59;;;;;;;;;;;7.70;99.90;;;;;;5000959;28;20299;-73
2022/11/30 03:33:24;;;;;;;;;;;7.70;99.90;;;;;;4997583;28;19914;-73
2022/11/30 03:36:03;;;;;;;;;;;7.70;99.90;;;;;;4984617;28;20433;-72
2022/11/30 03:38:29;;;;;;;;;;;7.70;99.90;;;;;;5000038;28;19929;-73
2022/11/30 03:40:58;;;;;;;;;;;7.80;99.90;;;;;;4984584;28;19918;-73
2022/11/30 03:43:23;;;;;;;;;;;7.80;99.90;;;;;;5000241;28;19939;-73
2022/11/30 03:45:49;;;;;;;;;;;7.70;99.90;;;;;;4996883;28;20653;-74
2022/11/30 03:48:14;;;;;;;;;;;7.80;99.90;;;;;;5000001;28;19928;-74
2022/11/30 03:50:41;;;;;;;;;;;7.80;99.90;;;;;;4980381;28;19936;-74
2022/11/30 03:53:06;;;;;;;;;;;7.80;99.90;;;;;;4982186;28;20578;-73
2022/11/30 03:55:31;;;;;;;;;;;7.80;99.90;;;;;;4998373;28;19917;-73
2022/11/30 03:57:57;;;;;;;;;;;7.80;99.90;;;;;;4999117;28;19961;-74
2022/11/30 04:00:22;;;;;;;;;;;7.80;99.90;;;;;;4999903;28;19918;-71
2022/11/30 04:02:48;;;;;;;;;;;7.80;99.90;;;;;;4982759;28;19913;-73
2022/11/30 04:05:13;;;;;;;;;;;7.80;99.90;;;;;;4999934;28;20435;-73
2022/11/30 04:07:39;;;;;;;;;;;7.80;99.90;;;;;;4998493;28;20519;-72
2022/11/30 04:10:04;;;;;;;;;;;7.80;99.90;;;;;;5001563;28;19914;-71
2022/11/30 04:12:30;;;;;;;;;;;7.80;99.90;;;;;;4997407;28;20005;-70
2022/11/30 04:14:55;;;;;;;;;;;7.80;99.90;;;;;;4999913;28;19917;-72
2022/11/30 04:17:21;;;;;;;;;;;7.80;99.90;;;;;;4996607;28;19917;-71
2022/11/30 04:19:46;;;;;;;;;;;7.80;99.90;;;;;;4996978;28;19921;-72
2022/11/30 04:22:12;;;;;;;;;;;7.70;99.90;;;;;;4982899;28;19928;-73
2022/11/30 04:24:37;;;;;;;;;;;7.70;99.90;;;;;;4985513;28;20341;-73
2022/11/30 04:27:03;;;;;;;;;;;7.70;99.90;;;;;;5023799;28;19981;-73
2022/11/30 04:29:28;;;;;;;;;;;7.60;99.90;;;;;;5028428;28;19975;-72
2022/11/30 04:31:54;;;;;;;;;;;7.60;99.90;;;;;;5023852;28;19909;-74
2022/11/30 04:34:19;;;;;;;;;;;7.60;99.90;;;;;;5012586;28;19953;-72
2022/11/30 04:36:45;;;;;;;;;;;7.60;99.90;;;;;;5013195;28;20070;-73
2022/11/30 04:39:10;;;;;;;;;;;7.60;99.90;;;;;;5005728;28;19924;-73
2022/11/30 04:41:36;;;;;;;;;;;7.60;99.90;;;;;;5004487;28;20294;-73
2022/11/30 04:44:01;;;;;;;;;;;7.60;99.90;;;;;;5003277;28;19914;-73
2022/11/30 04:46:26;;;;;;;;;;;7.60;99.90;;;;;;4989081;28;19918;-72
2022/11/30 04:48:52;;;;;;;;;;;7.60;99.90;;;;;;5003627;28;19921;-73
2022/11/30 04:51:17;;;;;;;;;;;7.60;99.90;;;;;;5004391;28;20415;-73
2022/11/30 04:53:43;;;;;;;;;;;7.60;99.90;;;;;;5001731;28;19960;-72
2022/11/30 04:56:09;;;;;;;;;;;7.60;99.90;;;;;;5005095;28;19922;-72
2022/11/30 04:58:35;;;;;;;;;;;7.60;99.90;;;;;;4985025;28;20437;-72
2022/11/30 05:01:00;;;;;;;;;;;7.60;99.90;;;;;;4986645;28;20024;-73
2022/11/30 05:03:26;;;;;;;;;;;7.60;99.90;;;;;;5000846;28;20017;-74
2022/11/30 05:05:51;;;;;;;;;;;7.60;99.90;;;;;;4999878;28;19953;-74
2022/11/30 05:08:17;;;;;;;;;;;7.60;99.90;;;;;;5018290;28;19918;-74
2022/11/30 05:10:42;;;;;;;;;;;7.60;99.90;;;;;;4998453;28;19924;-73
2022/11/30 05:13:08;;;;;;;;;;;7.60;99.90;;;;;;5003715;28;19918;-73
2022/11/30 05:15:34;;;;;;;;;;;7.60;99.90;;;;;;5000863;28;19921;-73
2022/11/30 05:18:00;;;;;;;;;;;7.60;99.90;;;;;;4981911;28;19944;-74
2022/11/30 05:20:26;;;;;;;;;;;7.60;99.90;;;;;;5000328;28;19913;-73
2022/11/30 05:22:52;;;;;;;;;;;7.60;99.90;;;;;;5002655;28;20011;-72
2022/11/30 05:25:17;;;;;;;;;;;7.70;99.90;;;;;;5003082;28;20405;-72
2022/11/30 05:27:43;;;;;;;;;;;7.70;99.90;;;;;;5002634;28;19914;-73
2022/11/30 05:30:09;;;;;;;;;;;7.70;99.90;;;;;;5002509;28;20016;-74
2022/11/30 05:32:34;;;;;;;;;;;7.60;99.90;;;;;;4998302;28;20294;-73
2022/11/30 05:34:59;;;;;;;;;;;7.60;99.90;;;;;;4981606;28;19918;-73
2022/11/30 05:37:25;;;;;;;;;;;7.60;99.90;;;;;;5010975;28;19921;-73
2022/11/30 05:39:51;;;;;;;;;;;7.60;99.90;;;;;;5002821;28;19996;-73
2022/11/30 05:42:16;;;;;;;;;;;7.60;99.90;;;;;;5005475;28;19937;-74
2022/11/30 05:44:42;;;;;;;;;;;7.50;99.90;;;;;;5001258;28;19927;-74
2022/11/30 05:47:08;;;;;;;;;;;7.50;99.90;;;;;;5001211;28;19922;-71
2022/11/30 05:49:33;;;;;;;;;;;7.50;99.90;;;;;;4996594;28;19944;-73
2022/11/30 05:51:59;;;;;;;;;;;7.50;99.90;;;;;;5004268;28;19929;-74
2022/11/30 05:54:24;;;;;;;;;;;7.50;99.90;;;;;;4999647;28;19921;-73
2022/11/30 05:56:49;;;;;;;;;;;7.40;99.90;;;;;;5002129;28;20021;-72
2022/11/30 05:59:15;;;;;;;;;;;7.40;99.90;;;;;;5002193;28;19913;-72
2022/11/30 06:01:40;;;;;;;;;;;7.40;99.90;;;;;;4999382;28;20349;-73
2022/11/30 06:04:06;;;;;;;;;;;7.40;99.90;;;;;;5001511;28;19922;-73
2022/11/30 06:06:32;;;;;;;;;;;7.40;99.90;;;;;;4999423;28;19952;-71
2022/11/30 06:08:57;;;;;;;;;;;7.30;99.90;;;;;;4980366;28;19918;-72
2022/11/30 06:11:23;;;;;;;;;;;7.40;99.90;;;;;;4996935;28;20416;-71
2022/11/30 06:13:48;;;;;;;;;;;7.30;99.90;;;;;;4982880;28;19917;-73
2022/11/30 06:16:14;;;;;;;;;;;7.30;99.90;;;;;;5000808;28;19960;-73
2022/11/30 06:18:39;;;;;;;;;;;7.30;99.90;;;;;;4997825;28;20381;-73
2022/11/30 06:21:06;;;;;;;;;;;7.30;99.90;;;;;;5000659;28;19967;-73
2022/11/30 06:23:32;;;;;;;;;;;7.30;99.90;;;;;;5000272;28;19914;-72
2022/11/30 06:26:01;;;;;;;;;;;7.30;99.90;;;;;;5001930;28;19972;-73
2022/11/30 06:28:26;;;;;;;;;;;7.20;99.90;;;;;;5001730;28;20330;-72
2022/11/30 06:30:56;;;;;;;;;;;7.20;99.90;;;;;;5002082;28;19959;-72
2022/11/30 06:33:22;;;;;;;;;;;7.10;99.90;;;;;;5001791;28;20389;-72
2022/11/30 06:35:48;;;;;;;;;;;7.10;99.90;;;;;;5006522;28;19995;-73
2022/11/30 06:38:13;;;;;;;;;;;7.10;99.90;;;;;;5006618;28;20311;-73
2022/11/30 06:40:39;;;;;;;;;;;7.00;99.90;;;;;;5012365;28;20063;-73
2022/11/30 06:43:04;;;;;;;;;;;7.00;99.90;;;;;;5004652;28;19922;-72
2022/11/30 06:45:30;;;;;;;;;;;7.00;99.90;;;;;;5004699;28;19925;-74
2022/11/30 06:47:56;;;;;;;;;;;7.00;99.90;;;;;;5000488;28;19913;-72
2022/11/30 06:50:22;;;;;;;;;;;7.00;99.90;;;;;;4980957;28;19919;-74
2022/11/30 06:52:47;;;;;;;;;;;7.00;99.90;;;;;;4996667;28;20417;-73
2022/11/30 06:55:13;;;;;;;;;;;7.10;99.90;;;;;;4998642;28;20366;-73
2022/11/30 06:57:38;;;;;;;;;;;7.10;99.90;;;;;;4996098;28;19989;-72
2022/11/30 07:00:04;;;;;;;;;;;7.10;99.90;;;;;;4999388;28;19921;-73
2022/11/30 07:02:30;;;;;;;;;;;7.10;99.90;;;;;;4980405;28;19977;-73
2022/11/30 07:04:56;;;;;;;;;;;7.10;99.90;;;;;;5001282;28;19953;-71
2022/11/30 07:07:22;;;;;;;;;;;7.20;99.90;;;;;;4998000;28;19924;-73
2022/11/30 07:09:48;;;;;;;;;;;7.20;99.90;;;;;;5014911;28;19918;-73
2022/11/30 07:12:13;;;;;;;;;;;7.20;99.90;;;;;;4980608;28;19917;-72
2022/11/30 07:14:39;;;;;;;;;;;7.20;99.90;;;;;;5001514;28;19914;-74
2022/11/30 07:17:04;;;;;;;;;;;7.30;99.90;;;;;;5001698;28;19996;-74
2022/11/30 07:19:31;;;;;;;;;;;7.20;99.90;;;;;;4982925;28;19922;-73
2022/11/30 07:21:56;;;;;;;;;;;7.20;99.90;;;;;;4981071;28;19917;-73
2022/11/30 07:27:06;;;;;;;;;;;7.30;99.90;;;;;;4997992;28;19984;-73
2022/11/30 07:29:31;;;;;;;;;;;7.30;99.90;;;;;;4997394;28;19917;-71
2022/11/30 07:31:57;;;;;;;;;;;7.30;99.90;;;;;;4983990;28;19924;-73
2022/11/30 07:34:22;;;;;;;;;;;7.30;99.90;;;;;;4981349;28;19922;-71
2022/11/30 07:36:48;;;;;;;;;;;7.30;99.90;;;;;;4999789;28;19917;-73
2022/11/30 07:39:14;;;;;;;;;;;7.30;99.90;;;;;;4980619;28;20370;-73
2022/11/30 07:41:40;;;;;;;;;;;7.30;99.90;;;;;;5003128;28;19967;-72
2022/11/30 07:44:06;;;;;;;;;;;7.30;99.90;;;;;;5004540;28;19914;-74
2022/11/30 07:46:37;;;;;;;;;;;7.30;99.90;;;;;;5000121;28;19925;-69
2022/11/30 07:49:07;;;;;;;;;;;7.30;99.90;;;;;;5005246;28;19917;-72
2022/11/30 07:51:33;;;;;;;;;;;7.30;99.90;;;;;;4995716;28;19922;-71
2022/11/30 07:53:58;;;;;;;;;;;7.30;99.90;;;;;;5004964;28;19913;-71
2022/11/30 07:56:24;;;;;;;;;;;7.30;99.90;;;;;;5007289;28;20350;-72
2022/11/30 07:58:52;;;;;;;;;;;7.30;99.90;;;;;;5011865;28;20448;-73
2022/11/30 08:01:20;;;;;;;;;;;7.30;99.90;;;;;;5012525;28;19921;-70
2022/11/30 08:03:46;;;;;;;;;;;7.30;99.90;;;;;;5008421;28;19918;-73
2022/11/30 08:06:13;;;;;;;;;;;7.30;99.90;;;;;;5014476;28;19976;-71
2022/11/30 08:08:39;;;;;;;;;;;7.40;99.90;;;;;;5010631;28;19914;-73
2022/11/30 08:11:05;;;;;;;;;;;7.30;99.90;;;;;;5001120;28;19925;-73
2022/11/30 08:13:31;;;;;;;;;;;7.40;99.90;;;;;;5009121;28;19928;-73
2022/11/30 08:16:00;;;;;;;;;;;7.40;99.90;;;;;;4996119;28;19914;-71
2022/11/30 08:18:26;;;;;;;;;;;7.40;99.90;;;;;;5008147;28;19917;-71
2022/11/30 08:20:58;;;;;;;;;;;7.40;99.90;;;;;;5004250;28;19922;-73
2022/11/30 08:23:24;;;;;;;;;;;7.40;99.90;;;;;;4999764;28;20456;-73
2022/11/30 08:25:50;;;;;;;;;;;7.40;99.90;;;;;;5008627;28;19953;-71
2022/11/30 08:28:15;;;;;;;;;;;7.40;99.90;;;;;;5009478;28;19961;-72
2022/11/30 08:30:41;;;;;;;;;;;7.40;99.90;;;;;;4998856;28;20328;-73
2022/11/30 08:33:06;;;;;;;;;;;7.50;99.90;;;;;;5008830;28;19952;-73
2022/11/30 08:35:31;;;;;;;;;;;7.50;99.90;;;;;;4989916;28;19918;-72
2022/11/30 08:37:57;;;;;;;;;;;7.50;99.90;;;;;;5002636;28;20004;-73
2022/11/30 08:40:22;;;;;;;;;;;7.50;99.90;;;;;;5002049;28;19952;-72
2022/11/30 08:42:48;;;;;;;;;;;7.60;99.90;;;;;;4995631;28;19918;-72
2022/11/30 08:45:13;;;;;;;;;;;7.60;99.90;;;;;;5002664;28;19921;-73
2022/11/30 08:47:39;;;;;;;;;;;7.60;99.90;;;;;;5021772;28;19978;-74
2022/11/30 08:50:05;;;;;;;;;;;7.70;99.90;;;;;;5020561;28;19917;-73
2022/11/30 08:52:30;;;;;;;;;;;7.70;99.90;;;;;;5006171;28;19925;-72
2022/11/30 08:54:56;;;;;;;;;;;7.70;99.90;;;;;;4991854;28;19936;-74
2022/11/30 08:57:21;;;;;;;;;;;7.70;99.90;;;;;;4999936;28;20016;-72
2022/11/30 08:59:47;;;;;;;;;;;7.70;99.90;;;;;;4985113;28;19928;-73
2022/11/30 09:02:16;;;;;;;;;;;7.70;99.90;;;;;;5001233;28;20293;-73
2022/11/30 09:04:41;;;;;;;;;;;7.80;99.90;;;;;;5000131;28;20001;-71
2022/11/30 09:07:08;;;;;;;;;;;7.80;99.90;;;;;;5002897;28;20000;-74
2022/11/30 09:09:34;;;;;;;;;;;7.80;99.90;;;;;;4998527;28;20055;-72
2022/11/30 09:11:59;;;;;;;;;;;7.80;99.90;;;;;;5001511;28;20000;-73
2022/11/30 09:14:25;;;;;;;;;;;7.90;99.90;;;;;;4981823;28;19968;-74
2022/11/30 09:16:51;;;;;;;;;;;7.90;99.90;;;;;;4988586;28;19928;-73
2022/11/30 09:19:17;;;;;;;;;;;7.90;99.90;;;;;;5002858;28;20024;-73
2022/11/30 09:21:42;;;;;;;;;;;7.90;99.90;;;;;;4981527;28;20709;-72
2022/11/30 09:24:09;;;;;;;;;;;8.00;99.90;;;;;;5007239;28;20719;-71
2022/11/30 09:26:34;;;;;;;;;;;8.00;99.90;;;;;;5006769;28;19928;-73
2022/11/30 09:29:00;;;;;;;;;;;8.00;99.90;;;;;;4987107;28;19921;-70
2022/11/30 09:31:25;;;;;;;;;;;8.00;99.90;;;;;;5001659;28;20012;-72
2022/11/30 09:33:51;;;;;;;;;;;8.10;99.90;;;;;;5001698;28;19936;-72
2022/11/30 09:36:18;;;;;;;;;;;8.10;99.90;;;;;;5002268;28;20510;-73
2022/11/30 09:38:44;;;;;;;;;;;8.20;99.90;;;;;;5002618;28;19917;-73
2022/11/30 09:41:10;;;;;;;;;;;8.10;99.90;;;;;;5002353;28;19928;-73
2022/11/30 09:43:38;;;;;;;;;;;8.20;99.90;;;;;;5003401;28;19925;-73
2022/11/30 09:46:05;;;;;;;;;;;8.20;99.90;;;;;;5006923;28;19963;-73
2022/11/30 09:48:49;;;;;;;;;;;8.30;99.90;;;;;;4993570;28;19924;-73
2022/11/30 09:51:19;;;;;;;;;;;8.30;99.90;;;;;;5010296;28;19928;-73
2022/11/30 09:53:50;;;;;;;;;;;8.40;99.90;;;;;;5006474;28;19918;-71
2022/11/30 09:56:28;;;;;;;;;;;8.40;99.90;;;;;;5004888;28;19956;-73
2022/11/30 09:59:17;;;;;;;;;;;8.40;99.90;;;;;;5005694;28;19953;-72
2022/11/30 10:01:43;;;;;;;;;;;8.40;99.90;;;;;;4981409;28;19921;-73
2022/11/30 10:04:17;;;;;;;;;;;8.50;99.90;;;;;;5004580;28;20560;-73
2022/11/30 10:07:06;;;;;;;;;;;8.50;99.90;;;;;;4985009;28;19957;-73
2022/11/30 10:09:37;;;;;;;;;;;8.50;99.90;;;;;;4956021;28;20407;-68
2022/11/30 10:12:11;;;;;;;;;;;8.60;99.90;;;;;;4983347;28;19917;-72
2022/11/30 10:14:45;;;;;;;;;;;8.60;99.90;;;;;;5003862;28;19964;-71
2022/11/30 10:17:29;;;;;;;;;;;8.70;99.90;;;;;;4985483;28;19947;-72
2022/11/30 10:19:55;;;;;;;;;;;8.70;99.90;;;;;;4984410;28;19921;-72
2022/11/30 10:22:20;;;;;;;;;;;8.70;99.90;;;;;;5014841;28;19917;-72
2022/11/30 10:25:05;;;;;;;;;;;8.80;99.90;;;;;;5002196;28;19923;-73
2022/11/30 10:27:37;;;;;;;;;;;8.80;99.90;;;;;;5003640;28;19914;-70
2022/11/30 10:30:08;;;;;;;;;;;8.80;99.90;;;;;;5000414;28;19917;-73
2022/11/30 10:32:37;;;;;;;;;;;8.80;99.90;;;;;;4988244;28;20296;-73
2022/11/30 10:35:14;;;;;;;;;;;8.80;99.90;;;;;;5000583;28;19921;-72
2022/11/30 10:37:41;;;;;;;;;;;8.90;99.90;;;;;;5003501;28;19940;-72
2022/11/30 10:40:22;;;;;;;;;;;8.90;99.90;;;;;;5003841;28;19914;-72
2022/11/30 10:43:03;;;;;;;;;;;8.90;99.90;;;;;;5000832;28;19928;-73
2022/11/30 10:45:29;;;;;;;;;;;8.90;99.90;;;;;;5000699;28;19951;-71
2022/11/30 10:48:09;;;;;;;;;;;9.00;99.90;;;;;;5003310;28;19917;-73
2022/11/30 10:50:34;;;;;;;;;;;9.00;99.90;;;;;;5004284;28;19917;-73
2022/11/30 10:53:00;;;;;;;;;;;9.10;99.90;;;;;;5013827;28;19928;-73
2022/11/30 10:55:30;;;;;;;;;;;9.10;99.90;;;;;;5012779;28;20051;-72
2022/11/30 10:58:02;;;;;;;;;;;9.10;99.90;;;;;;5006959;28;20010;-72
2022/11/30 11:00:28;;;;;;;;;;;9.20;99.90;;;;;;5004154;28;19939;-72
2022/11/30 11:02:53;;;;;;;;;;;9.20;99.90;;;;;;5007165;28;20012;-74
2022/11/30 11:05:29;;;;;;;;;;;9.20;99.90;;;;;;5006800;28;20525;-72
2022/11/30 11:07:57;;;;;;;;;;;9.20;99.90;;;;;;5006559;28;20547;-73
2022/11/30 11:10:32;;;;;;;;;;;9.20;99.90;;;;;;5006572;28;19921;-70
2022/11/30 11:12:58;;;;;;;;;;;9.20;99.90;;;;;;4995595;28;19964;-72
2022/11/30 11:15:25;;;;;;;;;;;9.30;99.90;;;;;;4999145;28;19952;-70
2022/11/30 11:17:50;;;;;;;;;;;9.40;99.90;;;;;;4995010;28;19944;-71
2022/11/30 11:20:26;;;;;;;;;;;9.30;99.90;;;;;;4998211;28;19960;-70
2022/11/30 11:22:52;;;;;;;;;;;9.40;99.90;;;;;;5006740;28;19917;-72
2022/11/30 11:25:36;;;;;;;;;;;9.40;99.90;;;;;;5006431;28;19928;-73
2022/11/30 11:28:04;;;;;;;;;;;9.40;99.90;;;;;;5006740;28;20393;-73
2022/11/30 11:30:31;;;;;;;;;;;9.50;99.90;;;;;;5006766;28;19952;-72
2022/11/30 11:33:01;;;;;;;;;;;9.50;99.90;;;;;;5006401;28;20408;-71
2022/11/30 11:35:31;;;;;;;;;;;9.50;99.90;;;;;;5003599;28;20515;-73
2022/11/30 11:37:56;;;;;;;;;;;9.50;99.90;;;;;;4994769;28;20366;-70
2022/11/30 11:40:23;;;;;;;;;;;9.40;99.90;;;;;;4998560;28;19925;-73
2022/11/30 11:42:50;;;;;;;;;;;9.50;99.90;;;;;;4995127;28;20013;-73
2022/11/30 11:45:18;;;;;;;;;;;9.50;99.90;;;;;;5005580;28;19921;-72
2022/11/30 11:47:44;;;;;;;;;;;9.40;99.90;;;;;;5006473;28;19992;-72
2022/11/30 11:50:22;;;;;;;;;;;9.40;99.90;;;;;;5007536;28;19953;-71
2022/11/30 11:52:48;;;;;;;;;;;9.30;99.90;;;;;;5006703;28;19917;-73
2022/11/30 11:55:18;;;;;;;;;;;9.30;99.90;;;;;;5013365;28;20556;-72
2022/11/30 11:57:47;;;;;;;;;;;9.20;99.90;;;;;;5015549;28;19921;-71
2022/11/30 12:00:12;;;;;;;;;;;9.20;99.90;;;;;;5010644;28;19914;-73
2022/11/30 12:02:45;;;;;;;;;;;9.20;99.90;;;;;;5022841;28;19918;-73
2022/11/30 12:05:14;;;;;;;;;;;9.20;99.90;;;;;;5006364;28;19928;-71
2022/11/30 12:07:42;;;;;;;;;;;9.20;99.90;;;;;;4999300;28;20436;-72
2022/11/30 12:10:24;;;;;;;;;;;9.10;99.90;;;;;;4993895;28;19925;-73
2022/11/30 12:12:50;;;;;;;;;;;9.10;99.90;;;;;;5003455;28;19940;-73
2022/11/30 12:15:15;;;;;;;;;;;9.10;99.90;;;;;;4997645;28;19921;-73
2022/11/30 12:17:40;;;;;;;;;;;9.10;99.90;;;;;;5004727;28;19914;-73
2022/11/30 12:20:12;;;;;;;;;;;9.20;99.90;;;;;;5006361;28;19917;-73
2022/11/30 12:22:44;;;;;;;;;;;9.20;99.90;;;;;;5005281;28;19921;-71
2022/11/30 12:25:24;;;;;;;;;;;9.20;99.90;;;;;;5006603;28;19917;-72
2022/11/30 12:27:54;;;;;;;;;;;9.30;99.90;;;;;;5006282;28;19913;-72
2022/11/30 12:30:22;;;;;;;;;;;9.30;99.90;;;;;;5005936;28;20373;-72
2022/11/30 12:32:56;;;;;;;;;;;9.30;99.90;;;;;;4994168;28;19996;-73
2022/11/30 12:35:32;;;;;;;;;;;9.40;99.90;;;;;;4992804;28;19967;-72
2022/11/30 12:37:58;;;;;;;;;;;9.40;99.90;;;;;;5005876;28;19925;-72
2022/11/30 12:40:42;;;;;;;;;;;9.50;99.90;;;;;;4996651;28;19917;-72
2022/11/30 12:43:27;;;;;;;;;;;9.50;99.90;;;;;;4997748;28;19984;-73
2022/11/30 12:45:58;;;;;;;;;;;9.40;99.90;;;;;;5008258;28;19971;-73
2022/11/30 12:48:33;;;;;;;;;;;9.30;99.90;;;;;;5006666;28;19917;-71
2022/11/30 12:51:05;;;;;;;;;;;9.20;99.90;;;;;;5007000;28;19918;-73
2022/11/30 12:54:02;;;;;;;;;;;9.20;99.90;;;;;;5009606;28;19924;-73
2022/11/30 12:57:03;;;;;;;;;;;9.10;99.90;;;;;;4957605;28;19964;-73
2022/11/30 12:59:29;;;;;;;;;;;9.10;99.90;;;;;;4921769;29;19915;-72
2022/11/30 13:02:06;;;;;;;;;;;9.10;99.90;;;;;;4998824;28;20027;-72
2022/11/30 13:04:37;;;;;;;;;;;9.20;99.90;;;;;;5014681;28;19936;-72
2022/11/30 13:07:10;;;;;;;;;;;9.20;99.90;;;;;;5025551;28;19964;-72
2022/11/30 13:09:49;;;;;;;;;;;9.10;99.90;;;;;;5025128;28;19913;-73
2022/11/30 13:12:18;;;;;;;;;;;9.10;99.90;;;;;;5021299;28;19921;-74
2022/11/30 13:14:44;;;;;;;;;;;9.00;99.90;;;;;;5013210;28;20032;-71
2022/11/30 13:17:15;;;;;;;;;;;9.00;99.90;;;;;;5013887;28;20369;-71
2022/11/30 13:19:50;;;;;;;;;;;8.90;99.90;;;;;;5012045;28;19929;-73
2022/11/30 13:22:22;;;;;;;;;;;8.90;99.90;;;;;;5005842;28;19917;-70
2022/11/30 13:24:59;;;;;;;;;;;8.90;99.90;;;;;;5001598;28;20365;-72
2022/11/30 13:27:29;;;;;;;;;;;8.90;99.90;;;;;;5010878;28;20448;-73
2022/11/30 13:30:21;;;;;;;;;;;8.80;99.90;;;;;;4997433;28;19921;-72
2022/11/30 13:32:46;;;;;;;;;;;8.90;99.90;;;;;;4965001;28;20439;-73
2022/11/30 13:35:27;;;;;;;;;;;8.90;99.90;;;;;;5002969;28;19913;-73
2022/11/30 13:38:04;;;;;;;;;;;8.90;99.90;;;;;;5015417;28;20004;-72
2022/11/30 13:40:29;;;;;;;;;;;8.90;99.90;;;;;;5009673;28;19940;-72
2022/11/30 13:42:55;;;;;;;;;;;9.00;99.90;;;;;;5009038;28;19913;-73
2022/11/30 13:45:26;;;;;;;;;;;9.00;99.90;;;;;;5008580;28;19921;-73
2022/11/30 13:47:53;;;;;;;;;;;9.00;99.90;;;;;;5008460;28;19943;-72
2022/11/30 13:50:23;;;;;;;;;;;9.00;99.90;;;;;;5005407;28;20293;-73
2022/11/30 13:53:16;;;;;;;;;;;9.00;99.90;;;;;;5007161;28;20016;-72
2022/11/30 13:55:41;;;;;;;;;;;9.00;99.90;;;;;;5008808;28;19917;-69
2022/11/30 13:58:08;;;;;;;;;;;9.10;99.90;;;;;;5009014;28;19940;-74
2022/11/30 14:00:34;;;;;;;;;;;9.00;99.90;;;;;;5001232;28;19928;-73
2022/11/30 14:03:22;;;;;;;;;;;9.00;99.90;;;;;;5011402;28;20285;-73
2022/11/30 14:05:48;;;;;;;;;;;8.90;99.90;;;;;;4996916;28;19921;-70
2022/11/30 14:08:16;;;;;;;;;;;8.90;99.90;;;;;;4994244;28;19929;-73
2022/11/30 14:10:43;;;;;;;;;;;8.90;99.90;;;;;;5008974;28;19953;-72
2022/11/30 14:13:09;;;;;;;;;;;8.90;99.90;;;;;;5010060;28;20332;-70
2022/11/30 14:15:37;;;;;;;;;;;8.90;99.90;;;;;;5008510;28;19944;-73
2022/11/30 14:18:06;;;;;;;;;;;8.90;99.90;;;;;;5008290;28;20007;-73
2022/11/30 14:20:33;;;;;;;;;;;8.90;99.90;;;;;;5008561;28;19922;-73
2022/11/30 14:23:06;;;;;;;;;;;8.80;99.90;;;;;;5008028;28;19918;-73
2022/11/30 14:25:33;;;;;;;;;;;8.80;99.90;;;;;;5007612;28;19973;-73
2022/11/30 14:28:01;;;;;;;;;;;8.60;99.90;;;;;;4998209;28;19929;-73
2022/11/30 14:30:30;;;;;;;;;;;8.50;99.90;;;;;;5007878;28;20377;-73
2022/11/30 14:33:00;;;;;;;;;;;8.50;99.90;;;;;;5007751;28;19987;-73
2022/11/30 14:35:27;;;;;;;;;;;8.50;99.90;;;;;;5008266;28;19920;-73
2022/11/30 14:37:54;;;;;;;;;;;8.30;99.90;;;;;;5007639;28;20434;-73